Hocking — AEPB — position and weather

sailwx.info

Track history (hours):
 
Tides and Currents Weather Stations Pressure Air Temp Water Temp Dewpoint Dewpoint Depression Visibility Wind Speed Wind Dir Waves Ship Positions

Hocking

Last reported at 2018-Jun-18 18:30 UTC. Time now 2018-Jun-18 21:12 UTC.
Position N 40°41' W 074°04'.

Length 21 m; draft 1.8 m.

Type: Other ship. MMSI: 366999414.

Date/timePositionNaut miles runAvg speedWind from/ knotsBaromVisibWave heightAir tempDewpointWater temp
2018-Jun-18 18:30N 40°41' W 074°04'2 3.9
2018-Jun-18 18:00N 40°39' W 074°04'9 2.1
2018-Jun-18 13:44N 40°34' W 073°54'2 7.6
2018-Jun-18 13:25N 40°34' W 073°57'3 7.4
2018-Jun-18 12:59N 40°35' W 074°01'4 8.9
2018-Jun-18 12:30N 40°39' W 074°03'  
2018-Jun-13 18:22N 40°40' W 074°04'2 6.4
2018-Jun-13 18:00N 40°38' W 074°04'1 1.8
2018-Jun-13 17:29N 40°38' W 074°03'4 8.2
2018-Jun-13 17:01N 40°42' W 074°01'4 2.1
2018-Jun-13 14:58N 40°46' W 074°00'3 6.5
2018-Jun-13 14:30N 40°43' W 074°01'4 7.7
2018-Jun-13 14:01N 40°39' W 074°02'3 4.9
2018-Jun-13 13:20N 40°36' W 074°02'3 7.5
2018-Jun-13 12:59N 40°39' W 074°03'3 5.8
2018-Jun-13 12:30N 40°41' W 074°04'0 0.0
2018-Jun-12 18:15N 40°41' W 074°04'2 6.9
2018-Jun-12 18:00N 40°39' W 074°04'1 2.7
2018-Jun-12 17:30N 40°40' W 074°05'1 1.9
2018-Jun-12 17:00N 40°41' W 074°04'3 5.9
2018-Jun-12 16:30N 40°43' W 074°01'3 1.6
2018-Jun-12 14:37N 40°41' W 074°04'0 4.5
2018-Jun-12 14:30N 40°41' W 074°04'3 6.0
2018-Jun-12 14:00N 40°43' W 074°01'0 0.6
2018-Jun-12 13:30N 40°43' W 074°01'3 0.1
2018-Jun-11 16:38N 40°40' W 074°01'2 8.8
2018-Jun-11 16:26N 40°42' W 074°01'3 3.7
2018-Jun-11 15:36N 40°45' W 074°01'1 6.4
2018-Jun-11 15:29N 40°45' W 074°01'2 3.7
2018-Jun-11 15:00N 40°44' W 074°01'3 6.2
2018-Jun-11 14:27N 40°41' W 074°04'  
2018-Jun-08 18:31N 40°41' W 074°04'  
Track history (hours):
 
Tides and Currents Weather Stations Pressure Air Temp Water Temp Dewpoint Dewpoint Depression Visibility Wind Speed Wind Dir Waves Ship Positions

Hocking

Last reported at 2018-Jun-18 18:30 UTC. Time now 2018-Jun-18 21:12 UTC.
Position N 40°41' W 074°04'.

Length 21 m; draft 1.8 m.

Type: Other ship. MMSI: 366999414.

Date/timePositionNaut miles runAvg speedWind from/ knotsBaromVisibWave heightAir tempDewpointWater temp
2018-Jun-18 18:30N 40°41' W 074°04'2 3.9
2018-Jun-18 18:00N 40°39' W 074°04'9 2.1
2018-Jun-18 13:44N 40°34' W 073°54'2 7.6
2018-Jun-18 13:25N 40°34' W 073°57'3 7.4
2018-Jun-18 12:59N 40°35' W 074°01'4 8.9
2018-Jun-18 12:30N 40°39' W 074°03'  
2018-Jun-13 18:22N 40°40' W 074°04'2 6.4
2018-Jun-13 18:00N 40°38' W 074°04'1 1.8
2018-Jun-13 17:29N 40°38' W 074°03'4 8.2
2018-Jun-13 17:01N 40°42' W 074°01'4 2.1
2018-Jun-13 14:58N 40°46' W 074°00'3 6.5
2018-Jun-13 14:30N 40°43' W 074°01'4 7.7
2018-Jun-13 14:01N 40°39' W 074°02'3 4.9
2018-Jun-13 13:20N 40°36' W 074°02'3 7.5
2018-Jun-13 12:59N 40°39' W 074°03'3 5.8
2018-Jun-13 12:30N 40°41' W 074°04'0 0.0
2018-Jun-12 18:15N 40°41' W 074°04'2 6.9
2018-Jun-12 18:00N 40°39' W 074°04'1 2.7
2018-Jun-12 17:30N 40°40' W 074°05'1 1.9
2018-Jun-12 17:00N 40°41' W 074°04'3 5.9
2018-Jun-12 16:30N 40°43' W 074°01'3 1.6
2018-Jun-12 14:37N 40°41' W 074°04'0 4.5
2018-Jun-12 14:30N 40°41' W 074°04'3 6.0
2018-Jun-12 14:00N 40°43' W 074°01'0 0.6
2018-Jun-12 13:30N 40°43' W 074°01'3 0.1
2018-Jun-11 16:38N 40°40' W 074°01'2 8.8
2018-Jun-11 16:26N 40°42' W 074°01'3 3.7
2018-Jun-11 15:36N 40°45' W 074°01'1 6.4
2018-Jun-11 15:29N 40°45' W 074°01'2 3.7
2018-Jun-11 15:00N 40°44' W 074°01'3 6.2
2018-Jun-11 14:27N 40°41' W 074°04'  
2018-Jun-08 18:31N 40°41' W 074°04'  

Dump ship's entire track history